Gordon Reid — CGBR — position and weather

sailwx.info

Track history (hours):
 
Tides and Currents Weather Stations Pressure Air Temp Water Temp Dewpoint Dewpoint Depression Visibility Wind Speed Wind Dir Waves Ship Positions

Gordon Reid

Last reported at 2016-Dec-10 21:00 UTC. Time now 2016-Dec-10 21:45 UTC.
Position N 52°24' W 128°54'.

Length 49.95 m; beam 11 m; draft 5.4 m.

Type: SAR. MMSI: 316094000.

Wind from 040 at 7 knots

Barometer 1007.7 mb
Air temperature 2.2 ° C
Dewpoint -5.1 ° C
Water temperature 8.9 ° C

Date/timePositionNaut miles runAvg speedWind from/ knotsBaromVisibWave heightAir tempDewpointWater temp
2016-Dec-10 21:00N 52°24' W 128°54'0 0.0 040 / 71007.7 2.2-5.1 8.9
2016-Dec-10 20:00N 52°24' W 128°54'1212.0 030 / 111007.6 1.4-5.6 7.5
2016-Dec-10 19:00N 52°36' W 128°54'1414.0 210 / 51008.0 0.9-3.4 7.2
2016-Dec-10 18:00N 52°48' W 129°06'9 9.4 070 / 31007.8 0.4-4.8 7.9
2016-Dec-10 17:00N 52°54' W 129°18'1414.0 360 / 131007.9 -0.3-6.0 8.3
2016-Dec-10 16:00N 53°06' W 129°06'0 0.0 020 / 71008.4 -1.0-6.0 6.2
2016-Dec-10 15:00N 53°06' W 129°06'0 0.0 090 / 61008.5 -2.5-5.5
2016-Dec-10 14:00N 53°06' W 129°06'0 0.0 110 / 61008.7 -2.2-4.9
2016-Dec-10 13:00N 53°06' W 129°06'0 0.0 100 / 41008.8 -2.2-4.7
2016-Dec-10 12:00N 53°06' W 129°06'0 0.0 120 / 51009.0 -1.9-4.4
2016-Dec-10 11:00N 53°06' W 129°06'0 0.0 120 / 51008.8 -1.9-3.9
2016-Dec-10 10:00N 53°06' W 129°06'0 0.0 090 / 21008.7 -1.5-3.7
2016-Dec-10 09:00N 53°06' W 129°06'0 0.0 110 / 41008.6 -0.6-4.4
2016-Dec-10 08:00N 53°06' W 129°06'0 0.0 090 / 21008.3 -0.0-4.7
2016-Dec-10 07:00N 53°06' W 129°06'0 0.0 030 / 61007.9 0.2-5.2
2016-Dec-10 06:00N 53°06' W 129°06'0 0.0 020 / 51007.9 0.8-4.8
2016-Dec-10 05:00N 53°06' W 129°06'0 0.0 010 / 41007.6 1.1-4.3
2016-Dec-10 04:00N 53°06' W 129°06'0 0.0 040 / 51007.5 1.5-3.8
2016-Dec-10 03:00N 53°06' W 129°06'0 0.0 010 / 41007.8 1.6-3.6
2016-Dec-10 02:00N 53°06' W 129°06'0 0.0 350 / 31007.9 1.8-3.9
2016-Dec-10 01:00N 53°06' W 129°06'0 0.0 040 / 51008.2 2.0-3.6
2016-Dec-10 00:00N 53°06' W 129°06'0 0.0 010 / 61008.1 2.1-3.2
2016-Dec-09 23:00N 53°06' W 129°06'0 0.0 010 / 51007.9 2.1-3.2
2016-Dec-09 22:00N 53°06' W 129°06'0 0.0 060 / 31007.9 2.4-2.8
2016-Dec-09 21:00N 53°06' W 129°06'0 0.0 100 / 41007.9 2.4-3.0
2016-Dec-09 20:00N 53°06' W 129°06'0 0.0 090 / 41008.1 1.7-2.5
2016-Dec-09 19:00N 53°06' W 129°06'0 0.0 030 / 51007.9 0.3-2.2
2016-Dec-09 18:00N 53°06' W 129°06'0 0.0 090 / 81007.4 0.1-3.3
2016-Dec-09 17:00N 53°06' W 129°06'0 0.0 100 / 101006.6 1.3-7.7
2016-Dec-09 16:00N 53°06' W 129°06'0 0.0 120 / 61006.1 3.6-14.9
2016-Dec-09 15:00N 53°06' W 129°06'0 0.0 080 / 31006.3 3.6-15.5
2016-Dec-09 14:00N 53°06' W 129°06'0 0.0 090 / 61006.0 3.6-14.5
2016-Dec-09 13:00N 53°06' W 129°06'0 0.0 080 / 51006.1 3.9-15.4
2016-Dec-09 12:00N 53°06' W 129°06'0 0.0 080 / 51006.7 3.7-15.1
2016-Dec-09 11:00N 53°06' W 129°06'0 0.0 080 / 81007.3 3.6-15.1
2016-Dec-09 10:00N 53°06' W 129°06'0 0.0 060 / 91008.3 3.8-15.8
2016-Dec-09 09:00N 53°06' W 129°06'0 0.0 070 / 41009.0 3.7-14.9
2016-Dec-09 08:00N 53°06' W 129°06'0 0.0 040 / 71009.9 3.0-12.1
2016-Dec-09 07:00N 53°06' W 129°06'0 0.0 020 / 81010.6 3.1-13.0
2016-Dec-09 06:00N 53°06' W 129°06'0 0.0 020 / 81011.2 3.1-13.6
2016-Dec-09 05:00N 53°06' W 129°06'0 0.0 030 / 61011.5 2.5-11.9
2016-Dec-09 04:00N 53°06' W 129°06'0 0.0 010 / 91012.0 2.4-11.6
2016-Dec-09 03:00N 53°06' W 129°06'0 0.0 010 / 81012.6 2.3-11.1
2016-Dec-09 02:00N 53°06' W 129°06'0 0.0 090 / 31013.0 3.5-14.2
2016-Dec-09 01:00N 53°06' W 129°06'0 0.0 110 / 41014.0 3.0-12.7 7.0
2016-Dec-09 00:00N 53°06' W 129°06'0 0.0 010 / 41015.0 3.0-11.6 7.0
2016-Dec-08 23:00N 53°06' W 129°06'6 6.0 360 / 71015.6 2.9-10.9 6.9
2016-Dec-08 22:00N 53°12' W 129°06'1312.5 010 / 111018.6 1.8-12.3 7.0
2016-Dec-08 21:00N 53°24' W 129°12'0 0.0 020 / 81020.8 0.3-12.5 6.8
2016-Dec-08 20:00N 53°24' W 129°12'4 3.6 010 / 261021.0 -0.3-10.7 7.5
2016-Dec-08 19:00N 53°24' W 129°18'0 0.0 350 / 191021.6 -1.6-12.8
2016-Dec-08 18:00N 53°24' W 129°18'0 0.0 350 / 221022.2 -2.1-12.2
2016-Dec-08 17:00N 53°24' W 129°18'0 0.0 010 / 211022.6 -2.3-11.9
2016-Dec-08 16:00N 53°24' W 129°18'0 0.0 350 / 221023.3 -2.5-12.0
2016-Dec-08 15:00N 53°24' W 129°18'0 0.0 350 / 211024.2 -2.6-12.6
2016-Dec-08 14:00N 53°24' W 129°18'0 0.0 350 / 231025.2 -2.7-12.1
2016-Dec-08 13:00N 53°24' W 129°18'0 0.0 350 / 211026.1 -3.0-11.9
2016-Dec-08 12:00N 53°24' W 129°18'0 0.0 360 / 181027.0 -2.9-11.8
2016-Dec-08 11:00N 53°24' W 129°18'0 0.0 360 / 191027.3 -3.1-11.7
2016-Dec-08 10:00N 53°24' W 129°18'0 0.0 350 / 211027.7 -3.2-12.1
2016-Dec-08 09:00N 53°24' W 129°18'0 0.0 360 / 181028.5 -3.3-11.5
2016-Dec-08 08:00N 53°24' W 129°18'0 0.0 360 / 191028.9 -3.4-11.4
2016-Dec-08 07:00N 53°24' W 129°18'0 0.0 350 / 191029.5 -3.6-11.5
2016-Dec-08 06:00N 53°24' W 129°18'0 0.0 350 / 171030.3 -3.8-11.2
2016-Dec-08 05:00N 53°24' W 129°18'0 0.0 360 / 181030.7 -3.8-11.2
2016-Dec-08 04:00N 53°24' W 129°18'0 0.0 360 / 181031.2 -3.9-11.3
2016-Dec-08 03:00N 53°24' W 129°18'0 0.0 360 / 171031.5 -3.8-11.0 6.9
2016-Dec-08 02:00N 53°24' W 129°18'0 0.0 350 / 151032.1 -3.8-11.2 6.9
2016-Dec-08 01:00N 53°24' W 129°18'7 7.0 360 / 181032.4 -3.6-11.2 6.9
2016-Dec-08 00:00N 53°18' W 129°12'6 6.0 350 / 81032.8 -1.9-9.9 7.1
2016-Dec-07 23:00N 53°24' W 129°12'6 6.0 360 / 161033.4 -2.9-11.8 6.9
2016-Dec-07 22:00N 53°18' W 129°12'1312.5 040 / 81033.0 -2.1-10.6 7.0
2016-Dec-07 21:00N 53°06' W 129°06'9 9.4 020 / 101031.9 -1.7-9.7 7.1
2016-Dec-07 20:00N 53°00' W 129°18'1312.5 040 / 171031.9 -1.5-8.6 8.0
2016-Dec-07 19:00N 52°48' W 129°12'1212.4 070 / 91032.2 -1.9-9.4 8.4
2016-Dec-07 18:00N 52°42' W 128°54'1312.5 010 / 21032.0 -3.1-8.1 7.8
2016-Dec-07 17:00N 52°30' W 128°48'0 0.0 060 / 111031.7 -2.8-8.2
2016-Dec-07 16:00N 52°30' W 128°48'0 0.0 070 / 141031.3 -3.1-8.9
2016-Dec-07 15:00N 52°30' W 128°48'0 0.0 080 / 131031.3 -3.3-8.8
2016-Dec-07 14:00N 52°30' W 128°48'0 0.0 080 / 101031.5 -3.3-8.4
2016-Dec-07 13:00N 52°30' W 128°48'0 0.0 060 / 71031.6 -3.1-8.3
2016-Dec-07 12:00N 52°30' W 128°48'0 0.0 070 / 81031.7 -3.1-8.6
2016-Dec-07 11:00N 52°30' W 128°48'0 0.0 080 / 91031.4 -3.0-8.2
2016-Dec-07 10:00N 52°30' W 128°48'0 0.0 080 / 111031.1 -3.1-8.2
2016-Dec-07 09:00N 52°30' W 128°48'0 0.0 080 / 101031.2 -2.8-8.0
2016-Dec-07 08:00N 52°30' W 128°48'0 0.0 050 / 91031.0 -2.9-8.8
2016-Dec-07 07:00N 52°30' W 128°48'0 0.0 050 / 81030.5 -2.7-8.3
2016-Dec-07 06:00N 52°30' W 128°48'0 0.0 070 / 91029.9 -2.6-8.3
2016-Dec-07 05:00N 52°30' W 128°48'0 0.0 070 / 101029.6 -2.4-8.1
2016-Dec-07 04:00N 52°30' W 128°48'0 0.0 060 / 121029.3 -2.3-8.8
2016-Dec-07 03:00N 52°30' W 128°48'0 0.0 070 / 101029.0 -2.1-8.9
2016-Dec-07 02:00N 52°30' W 128°48'0 0.0 060 / 91028.7 -1.8-8.9
2016-Dec-07 01:00N 52°30' W 128°48'0 0.0 060 / 91028.5 -1.5-9.0
2016-Dec-07 00:00N 52°30' W 128°48'0 0.0 060 / 131028.3 -1.2-9.5
2016-Dec-06 23:00N 52°30' W 128°48'0 0.0 050 / 111027.9 -0.9-9.8
2016-Dec-06 22:00N 52°30' W 128°48'0 0.0 050 / 131027.7 -1.0-9.7
2016-Dec-06 21:00N 52°30' W 128°48'0 0.0 050 / 121027.8 -1.0-10.1
2016-Dec-06 20:00N 52°30' W 128°48'0 0.0 060 / 121027.8 -1.2-10.5
2016-Dec-06 19:00N 52°30' W 128°48'0 0.0 050 / 131027.8 -1.3-10.1
2016-Dec-06 18:00N 52°30' W 128°48'0 0.0 060 / 131027.0 -1.4-9.1
2016-Dec-06 17:00N 52°30' W 128°48'0 0.0 030 / 101026.9 -1.6-7.5
2016-Dec-06 16:00N 52°30' W 128°48'0 0.0 030 / 81026.6 -1.5-7.8
2016-Dec-06 15:00N 52°30' W 128°48'0 0.0 040 / 81026.2 -1.3-7.7
2016-Dec-06 14:00N 52°30' W 128°48'0 0.0 040 / 101025.8 -0.8-7.2
2016-Dec-06 13:00N 52°30' W 128°48'0 0.0 070 / 101025.8 -0.7-6.3
2016-Dec-06 12:00N 52°30' W 128°48'0 0.0 050 / 71025.9 -0.2-6.3
2016-Dec-06 11:00N 52°30' W 128°48'0 0.0 040 / 81025.8 0.1-6.0
2016-Dec-06 10:00N 52°30' W 128°48'0 0.0 040 / 101025.1 0.5-5.9
2016-Dec-06 09:00N 52°30' W 128°48'0 0.0 030 / 81025.0 0.6-6.2
2016-Dec-06 08:00N 52°30' W 128°48'0 0.0 040 / 91024.5 1.0-5.0
2016-Dec-06 07:00N 52°30' W 128°48'0 0.0 030 / 61024.1 1.2-4.6
2016-Dec-06 06:00N 52°30' W 128°48'0 0.0 050 / 121023.4 1.4-4.7
2016-Dec-06 05:00N 52°30' W 128°48'0 0.0 050 / 91022.8 1.7-4.2
2016-Dec-06 04:00N 52°30' W 128°48'0 0.0 060 / 121022.2 2.1-3.1
2016-Dec-06 03:00N 52°30' W 128°48'0 0.0 060 / 141021.5 2.6-2.7
2016-Dec-06 02:00N 52°30' W 128°48'0 0.0 050 / 71020.8 2.5-1.9
2016-Dec-06 01:00N 52°30' W 128°48'0 0.0 030 / 81020.1 3.0-2.0
2016-Dec-06 00:00N 52°30' W 128°48'0 0.0 030 / 71019.6 3.7-1.1
2016-Dec-05 23:00N 52°30' W 128°48'0 0.0 040 / 41019.2 4.0-0.0
2016-Dec-05 22:00N 52°30' W 128°48'0 0.0 010 / 71019.1 4.0-0.1
2016-Dec-05 20:00N 52°30' W 128°48'0 0.0 060 / 61019.0 2.6 0.7
2016-Dec-05 19:00N 52°30' W 128°48'0 0.0 090 / 81018.7 3.0 1.2
2016-Dec-05 18:00N 52°30' W 128°48'0 0.0 060 / 81018.2 2.2 1.3
2016-Dec-05 17:00N 52°30' W 128°48'0 0.0 040 / 51018.0 1.6 1.3
2016-Dec-05 16:00N 52°30' W 128°48'0 0.0 050 / 51017.6 1.4 1.2
2016-Dec-05 15:00N 52°30' W 128°48'0 0.0 020 / 41017.1 1.5 1.2
2016-Dec-05 14:00N 52°30' W 128°48'0 0.0 120 / 61016.6 1.6 1.3
2016-Dec-05 13:00N 52°30' W 128°48'0 0.0 140 / 121016.1 1.1 0.9
2016-Dec-05 12:00N 52°30' W 128°48'0 0.0 130 / 171016.2 1.1 0.9
2016-Dec-05 11:00N 52°30' W 128°48'0 0.0 140 / 101016.7 0.9 0.7
2016-Dec-05 10:00N 52°30' W 128°48'0 0.0 140 / 61016.4 1.7 1.4
2016-Dec-05 09:00N 52°30' W 128°48'0 0.0 120 / 71016.3 1.9 1.3
2016-Dec-05 08:00N 52°30' W 128°48'0 0.0 050 / 51016.2 1.3 1.1
2016-Dec-05 07:00N 52°30' W 128°48'0 0.0 090 / 81016.3 1.0 0.8
2016-Dec-05 06:00N 52°30' W 128°48'0 0.0 190 / 51016.7 0.5 0.2
2016-Dec-05 05:00N 52°30' W 128°48'0 0.0 160 / 61015.6 2.6 1.6
2016-Dec-05 04:00N 52°30' W 128°48'0 0.0 140 / 91014.6 1.9 1.1
2016-Dec-05 03:00N 52°30' W 128°48'0 0.0 150 / 111014.9 2.3 1.7
2016-Dec-05 02:00N 52°30' W 128°48'0 0.0 130 / 61014.8 2.0 1.0
2016-Dec-05 01:00N 52°30' W 128°48'0 0.0 120 / 81014.6 2.0 1.4
2016-Dec-05 00:00N 52°30' W 128°48'0 0.0 120 / 91014.5 1.6 1.3
2016-Dec-04 23:00N 52°30' W 128°48'0 0.0 130 / 61014.8 0.9 0.7
2016-Dec-04 22:00N 52°30' W 128°48'0 0.0 100 / 31015.2 0.7 0.4
2016-Dec-04 21:00N 52°30' W 128°48'0 0.0 180 / 81015.3 1.6 1.0
2016-Dec-04 20:00N 52°30' W 128°48'0 0.0 160 / 101015.4 2.7 2.2
2016-Dec-04 19:00N 52°30' W 128°48'0 0.0 140 / 131015.8 1.9 1.7
2016-Dec-04 18:00N 52°30' W 128°48'0 0.0 140 / 121016.2 1.7 1.2
2016-Dec-04 17:00N 52°30' W 128°48'0 0.0 130 / 111016.7 1.9 0.9
2016-Dec-04 16:00N 52°30' W 128°48'0 0.0 160 / 111016.5 1.6 1.3
2016-Dec-04 15:00N 52°30' W 128°48'0 0.0 130 / 111017.4 0.8 0.4
2016-Dec-04 14:00N 52°30' W 128°48'0 0.0 150 / 101017.1 1.9 1.0
2016-Dec-04 13:00N 52°30' W 128°48'0 0.0 180 / 61017.5 1.9 0.8
2016-Dec-04 12:00N 52°30' W 128°48'0 0.0 120 / 71018.0 2.0 0.9
2016-Dec-04 11:00N 52°30' W 128°48'0 0.0 140 / 31018.4 1.3 0.8
2016-Dec-04 10:00N 52°30' W 128°48'0 0.0 120 / 41018.2 1.9 1.2
2016-Dec-04 09:00N 52°30' W 128°48'0 0.0 210 / 41018.5 1.4 0.8
2016-Dec-04 08:00N 52°30' W 128°48'0 0.0 270 / 21018.0 1.6 0.7
2016-Dec-04 07:00N 52°30' W 128°48'0 0.0 1017.5 1.7 0.6
2016-Dec-04 06:00N 52°30' W 128°48'0 0.0 080 / 41016.7 2.6 1.1
2016-Dec-04 05:00N 52°30' W 128°48'0 0.0 150 / 41016.3 2.5 1.2
2016-Dec-04 04:00N 52°30' W 128°48'0 0.0 030 / 51016.1 2.8 0.9
2016-Dec-04 03:00N 52°30' W 128°48'0 0.0 130 / 51016.0 3.0 1.5
2016-Dec-04 02:00N 52°30' W 128°48'0 0.0 200 / 31016.1 3.1 1.4
2016-Dec-04 01:00N 52°30' W 128°48'0 0.0 310 / 31016.5 3.7 1.0
2016-Dec-04 00:00N 52°30' W 128°48'0 0.0 330 / 81016.2 4.8 2.1
2016-Dec-03 23:00N 52°30' W 128°48'0 0.0 220 / 91016.4 5.5 0.6
2016-Dec-03 22:00N 52°30' W 128°48'0 0.0 160 / 51016.8 4.4 2.2
2016-Dec-03 21:00N 52°30' W 128°48'0 0.0 1017.5 3.9 1.3 9.4
2016-Dec-03 20:00N 52°30' W 128°48'0 0.0 320 / 121017.4 4.2 1.1 9.3
2016-Dec-03 19:00N 52°30' W 128°48'7 7.0 260 / 101017.5 6.4 1.6 9.2
2016-Dec-03 18:00N 52°24' W 128°54'7 7.0 230 / 111017.1 6.6 0.910.3
2016-Dec-03 17:00N 52°18' W 128°48'9 9.5 210 / 161016.8 6.5 1.910.4
2016-Dec-03 16:00N 52°12' W 128°36'9 9.5 250 / 181016.8 6.9 0.8 9.2
2016-Dec-03 15:00N 52°18' W 128°24'7 7.0 240 / 181016.6 6.8 2.2 9.1
2016-Dec-03 14:00N 52°12' W 128°18'7 7.0 180 / 131016.8 5.4 2.9 9.0
2016-Dec-03 13:00N 52°18' W 128°12'0 0.0 230 / 151016.6 6.5 2.2 8.7
2016-Dec-03 12:00N 52°18' W 128°12'6 6.0 180 / 81016.1 5.9 2.8 8.5
2016-Dec-03 11:00N 52°24' W 128°12'4 3.7 230 / 181015.2 6.3 1.8 8.4
2016-Dec-03 10:00N 52°24' W 128°06'4 3.7 200 / 151014.5 7.8 3.5 8.2
2016-Dec-03 09:00N 52°24' W 128°12'6 6.0 220 / 61015.6 7.7 3.7 8.6
2016-Dec-03 08:00N 52°18' W 128°12'0 0.0 250 / 81014.7 7.6 3.7 8.7
2016-Dec-03 07:00N 52°18' W 128°12'7 7.0 200 / 81014.9 7.4 3.7 8.8
2016-Dec-03 06:00N 52°12' W 128°06'9 9.5 220 / 61015.1 7.0 4.1 8.2
2016-Dec-03 05:00N 52°06' W 127°54'1212.0 190 / 61014.9 7.8 4.8 8.1
2016-Dec-03 04:00N 51°54' W 127°54'1212.0 200 / 121015.1 8.8 5.0 9.1
2016-Dec-03 03:00N 51°42' W 127°54'1312.6 230 / 131014.6 9.3 4.7 9.3
2016-Dec-03 02:00N 51°30' W 127°48'1312.6 220 / 111014.7 9.1 5.3 9.8
2016-Dec-03 01:00N 51°18' W 127°54'6 8.4 230 / 141014.5 9.3 5.110.2
2016-Dec-03 00:14N 51°12' W 127°52'1 5.2
2016-Dec-03 00:00N 51°12' W 127°54'818.8 200 / 121014.3 9.6 5.4 9.8
2016-Dec-02 23:33N 51°05' W 127°49'1118.7
2016-Dec-02 23:00N 50°54' W 127°48'512.6 220 / 161014.7 8.3 5.710.3
2016-Dec-02 22:34N 50°55' W 127°39'610.7
2016-Dec-02 22:00N 50°54' W 127°30'715.3 220 / 141015.0 8.6 5.210.0
2016-Dec-02 21:33N 50°48' W 127°26'611.0
2016-Dec-02 21:00N 50°42' W 127°30'1 3.0 180 / 61015.1 7.9 5.7
2016-Dec-02 20:31N 50°43' W 127°29'1 2.7
2016-Dec-02 20:00N 50°42' W 127°30'1 1.8 170 / 41014.7 7.9 7.1
2016-Dec-02 19:13N 50°43' W 127°29'1 6.3
2016-Dec-02 19:00N 50°42' W 127°30'1 3.0 140 / 11014.5 8.5 7.4
2016-Dec-02 18:31N 50°43' W 127°29'1 2.7
2016-Dec-02 18:00N 50°42' W 127°30'0 0.0 180 / 31014.1 6.5 6.2
2016-Dec-02 17:00N 50°42' W 127°30'0 0.0 220 / 31013.5 6.7 6.2
2016-Dec-02 16:00N 50°42' W 127°30'0 0.0 250 / 21012.7 6.6 6.1
2016-Dec-02 15:00N 50°42' W 127°30'0 0.0 200 / 11012.5 6.6 5.9
2016-Dec-02 14:00N 50°42' W 127°30'1 3.0 160 / 21012.1 6.5 5.5
2016-Dec-02 13:31N 50°43' W 127°29'1 2.7
2016-Dec-02 13:00N 50°42' W 127°30'1 3.0 140 / 21012.6 7.1 5.4
2016-Dec-02 12:31N 50°43' W 127°29'1 2.7
2016-Dec-02 12:00N 50°42' W 127°30'1 3.0 150 / 41014.2 6.2 5.1
2016-Dec-02 11:31N 50°43' W 127°29'1 2.7
2016-Dec-02 11:00N 50°42' W 127°30'1 3.0 130 / 31014.3 7.0 5.4
2016-Dec-02 10:31N 50°43' W 127°29'1 2.7
2016-Dec-02 10:00N 50°42' W 127°30'1 3.0 110 / 31014.7 7.3 5.6
2016-Dec-02 09:31N 50°43' W 127°29'1 2.7
2016-Dec-02 09:00N 50°42' W 127°30'1 3.0 100 / 51016.4 7.2 5.3
2016-Dec-02 08:31N 50°43' W 127°29'1 2.7
2016-Dec-02 08:00N 50°42' W 127°30'1 3.0 110 / 31017.5 7.1 5.4
2016-Dec-02 07:31N 50°43' W 127°29'1 2.7
2016-Dec-02 07:00N 50°42' W 127°30'1 3.0 130 / 31018.7 7.4 4.8
2016-Dec-02 06:31N 50°43' W 127°29'1 2.7
2016-Dec-02 06:00N 50°42' W 127°30'1 2.5 110 / 41019.6 7.7 4.4
2016-Dec-02 05:25N 50°43' W 127°29'1 3.4
2016-Dec-02 05:00N 50°42' W 127°30'1 3.0 130 / 21020.3 7.3 4.6
2016-Dec-02 04:31N 50°43' W 127°29'0 0.0
2016-Dec-02 03:31N 50°43' W 127°29'1 2.7
2016-Dec-02 03:00N 50°42' W 127°30'1 2.5 140 / 21021.0 6.7 4.6
2016-Dec-02 02:25N 50°43' W 127°29'1 3.4
2016-Dec-02 02:00N 50°42' W 127°30'1 1.8 130 / 21021.2 6.3 4.2
2016-Dec-02 01:13N 50°43' W 127°29'1 6.3
2016-Dec-02 01:00N 50°42' W 127°30'1 3.0 130 / 21021.3 6.5 4.5
2016-Dec-02 00:31N 50°43' W 127°29'1 2.7
2016-Dec-02 00:00N 50°42' W 127°30'1 3.0 150 / 11020.8 6.6 4.7
2016-Dec-01 23:31N 50°43' W 127°29'1 2.7
2016-Dec-01 23:00N 50°42' W 127°30'1 3.0 120 / 21020.2 7.4 5.1
2016-Dec-01 22:31N 50°43' W 127°29'1 2.7
2016-Dec-01 22:00N 50°42' W 127°30'1 3.0 120 / 11020.0 6.9 5.0
2016-Dec-01 21:31N 50°43' W 127°29'1 2.7
2016-Dec-01 21:00N 50°42' W 127°30'1 3.0 140 / 21020.2 6.2 4.7
2016-Dec-01 20:31N 50°43' W 127°29'1 2.7
2016-Dec-01 20:00N 50°42' W 127°30'1 3.0 120 / 21019.7 7.2 4.9
2016-Dec-01 19:31N 50°43' W 127°29'1 2.7
2016-Dec-01 19:00N 50°42' W 127°30'1 2.5 120 / 21020.0 7.0 5.2
2016-Dec-01 18:25N 50°43' W 127°29'1 3.4
2016-Dec-01 18:00N 50°42' W 127°30'0 0.0 150 / 31020.3 4.8 4.1
2016-Dec-01 17:00N 50°42' W 127°30'0 0.0 190 / 41020.1 4.5 3.6
2016-Dec-01 16:00N 50°42' W 127°30'0 0.0 160 / 11020.1 4.9 3.7
2016-Dec-01 15:00N 50°42' W 127°30'0 0.0 200 / 31020.4 4.5 3.6
2016-Dec-01 14:00N 50°42' W 127°30'1 3.0 170 / 21020.8 4.6 3.5
2016-Dec-01 13:31N 50°43' W 127°29'1 2.7
2016-Dec-01 13:00N 50°42' W 127°30'1 2.5 180 / 31020.8 4.7 3.6
2016-Dec-01 12:25N 50°43' W 127°29'1 3.4
2016-Dec-01 12:00N 50°42' W 127°30'0 0.0 180 / 21020.9 5.4 3.8
2016-Dec-01 11:00N 50°42' W 127°30'0 0.0 170 / 31021.0 4.4 3.5
2016-Dec-01 10:00N 50°42' W 127°30'0 0.0 160 / 31021.1 4.3 3.4
2016-Dec-01 09:00N 50°42' W 127°30'0 0.0 170 / 11021.3 3.6 2.7
2016-Dec-01 08:00N 50°42' W 127°30'0 0.0 230 / 11020.9 3.6 2.7
2016-Dec-01 07:00N 50°42' W 127°30'0 0.0 170 / 21020.6 3.4 2.6
2016-Dec-01 06:00N 50°42' W 127°30'0 0.0 180 / 31020.6 3.7 2.6
2016-Dec-01 05:00N 50°42' W 127°30'0 0.0 150 / 11020.3 4.4 3.3
2016-Dec-01 04:00N 50°42' W 127°30'0 0.0 250 / 11020.1 4.8 3.6
2016-Dec-01 03:00N 50°42' W 127°30'1 1.0 170 / 21019.7 4.9 3.9
2016-Dec-01 01:31N 50°43' W 127°29'1 2.7
2016-Dec-01 01:00N 50°42' W 127°30'1 2.1 160 / 21018.6 5.6 4.5
2016-Dec-01 00:19N 50°43' W 127°29'1 4.4
2016-Dec-01 00:00N 50°42' W 127°30'0 0.0 320 / 31017.9 6.4 4.5
2016-Nov-30 23:00N 50°42' W 127°30'1 2.5 230 / 41017.2 6.6 4.2
2016-Nov-30 22:25N 50°43' W 127°29'1 3.4
2016-Nov-30 22:00N 50°42' W 127°30'1 3.0 250 / 51016.5 7.1 4.0
2016-Nov-30 21:31N 50°43' W 127°29'1 2.7
2016-Nov-30 21:00N 50°42' W 127°30'   250 / 71016.1 8.8 4.812.0
Track history (hours):
 
Tides and Currents Weather Stations Pressure Air Temp Water Temp Dewpoint Dewpoint Depression Visibility Wind Speed Wind Dir Waves Ship Positions

Gordon Reid

Last reported at 2016-Dec-10 21:00 UTC. Time now 2016-Dec-10 21:45 UTC.
Position N 52°24' W 128°54'.

Length 49.95 m; beam 11 m; draft 5.4 m.

Type: SAR. MMSI: 316094000.

Wind from 040 at 7 knots

Barometer 1007.7 mb
Air temperature 2.2 ° C
Dewpoint -5.1 ° C
Water temperature 8.9 ° C

Date/timePositionNaut miles runAvg speedWind from/ knotsBaromVisibWave heightAir tempDewpointWater temp
2016-Dec-10 21:00N 52°24' W 128°54'0 0.0 040 / 71007.7 2.2-5.1 8.9
2016-Dec-10 20:00N 52°24' W 128°54'1212.0 030 / 111007.6 1.4-5.6 7.5
2016-Dec-10 19:00N 52°36' W 128°54'1414.0 210 / 51008.0 0.9-3.4 7.2
2016-Dec-10 18:00N 52°48' W 129°06'9 9.4 070 / 31007.8 0.4-4.8 7.9
2016-Dec-10 17:00N 52°54' W 129°18'1414.0 360 / 131007.9 -0.3-6.0 8.3
2016-Dec-10 16:00N 53°06' W 129°06'0 0.0 020 / 71008.4 -1.0-6.0 6.2
2016-Dec-10 15:00N 53°06' W 129°06'0 0.0 090 / 61008.5 -2.5-5.5
2016-Dec-10 14:00N 53°06' W 129°06'0 0.0 110 / 61008.7 -2.2-4.9
2016-Dec-10 13:00N 53°06' W 129°06'0 0.0 100 / 41008.8 -2.2-4.7
2016-Dec-10 12:00N 53°06' W 129°06'0 0.0 120 / 51009.0 -1.9-4.4
2016-Dec-10 11:00N 53°06' W 129°06'0 0.0 120 / 51008.8 -1.9-3.9
2016-Dec-10 10:00N 53°06' W 129°06'0 0.0 090 / 21008.7 -1.5-3.7
2016-Dec-10 09:00N 53°06' W 129°06'0 0.0 110 / 41008.6 -0.6-4.4
2016-Dec-10 08:00N 53°06' W 129°06'0 0.0 090 / 21008.3 -0.0-4.7
2016-Dec-10 07:00N 53°06' W 129°06'0 0.0 030 / 61007.9 0.2-5.2
2016-Dec-10 06:00N 53°06' W 129°06'0 0.0 020 / 51007.9 0.8-4.8
2016-Dec-10 05:00N 53°06' W 129°06'0 0.0 010 / 41007.6 1.1-4.3
2016-Dec-10 04:00N 53°06' W 129°06'0 0.0 040 / 51007.5 1.5-3.8
2016-Dec-10 03:00N 53°06' W 129°06'0 0.0 010 / 41007.8 1.6-3.6
2016-Dec-10 02:00N 53°06' W 129°06'0 0.0 350 / 31007.9 1.8-3.9
2016-Dec-10 01:00N 53°06' W 129°06'0 0.0 040 / 51008.2 2.0-3.6
2016-Dec-10 00:00N 53°06' W 129°06'0 0.0 010 / 61008.1 2.1-3.2
2016-Dec-09 23:00N 53°06' W 129°06'0 0.0 010 / 51007.9 2.1-3.2
2016-Dec-09 22:00N 53°06' W 129°06'0 0.0 060 / 31007.9 2.4-2.8
2016-Dec-09 21:00N 53°06' W 129°06'0 0.0 100 / 41007.9 2.4-3.0
2016-Dec-09 20:00N 53°06' W 129°06'0 0.0 090 / 41008.1 1.7-2.5
2016-Dec-09 19:00N 53°06' W 129°06'0 0.0 030 / 51007.9 0.3-2.2
2016-Dec-09 18:00N 53°06' W 129°06'0 0.0 090 / 81007.4 0.1-3.3
2016-Dec-09 17:00N 53°06' W 129°06'0 0.0 100 / 101006.6 1.3-7.7
2016-Dec-09 16:00N 53°06' W 129°06'0 0.0 120 / 61006.1 3.6-14.9
2016-Dec-09 15:00N 53°06' W 129°06'0 0.0 080 / 31006.3 3.6-15.5
2016-Dec-09 14:00N 53°06' W 129°06'0 0.0 090 / 61006.0 3.6-14.5
2016-Dec-09 13:00N 53°06' W 129°06'0 0.0 080 / 51006.1 3.9-15.4
2016-Dec-09 12:00N 53°06' W 129°06'0 0.0 080 / 51006.7 3.7-15.1
2016-Dec-09 11:00N 53°06' W 129°06'0 0.0 080 / 81007.3 3.6-15.1
2016-Dec-09 10:00N 53°06' W 129°06'0 0.0 060 / 91008.3 3.8-15.8
2016-Dec-09 09:00N 53°06' W 129°06'0 0.0 070 / 41009.0 3.7-14.9
2016-Dec-09 08:00N 53°06' W 129°06'0 0.0 040 / 71009.9 3.0-12.1
2016-Dec-09 07:00N 53°06' W 129°06'0 0.0 020 / 81010.6 3.1-13.0
2016-Dec-09 06:00N 53°06' W 129°06'0 0.0 020 / 81011.2 3.1-13.6
2016-Dec-09 05:00N 53°06' W 129°06'0 0.0 030 / 61011.5 2.5-11.9
2016-Dec-09 04:00N 53°06' W 129°06'0 0.0 010 / 91012.0 2.4-11.6
2016-Dec-09 03:00N 53°06' W 129°06'0 0.0 010 / 81012.6 2.3-11.1
2016-Dec-09 02:00N 53°06' W 129°06'0 0.0 090 / 31013.0 3.5-14.2
2016-Dec-09 01:00N 53°06' W 129°06'0 0.0 110 / 41014.0 3.0-12.7 7.0
2016-Dec-09 00:00N 53°06' W 129°06'0 0.0 010 / 41015.0 3.0-11.6 7.0
2016-Dec-08 23:00N 53°06' W 129°06'6 6.0 360 / 71015.6 2.9-10.9 6.9
2016-Dec-08 22:00N 53°12' W 129°06'1312.5 010 / 111018.6 1.8-12.3 7.0
2016-Dec-08 21:00N 53°24' W 129°12'0 0.0 020 / 81020.8 0.3-12.5 6.8
2016-Dec-08 20:00N 53°24' W 129°12'4 3.6 010 / 261021.0 -0.3-10.7 7.5
2016-Dec-08 19:00N 53°24' W 129°18'0 0.0 350 / 191021.6 -1.6-12.8
2016-Dec-08 18:00N 53°24' W 129°18'0 0.0 350 / 221022.2 -2.1-12.2
2016-Dec-08 17:00N 53°24' W 129°18'0 0.0 010 / 211022.6 -2.3-11.9
2016-Dec-08 16:00N 53°24' W 129°18'0 0.0 350 / 221023.3 -2.5-12.0
2016-Dec-08 15:00N 53°24' W 129°18'0 0.0 350 / 211024.2 -2.6-12.6
2016-Dec-08 14:00N 53°24' W 129°18'0 0.0 350 / 231025.2 -2.7-12.1
2016-Dec-08 13:00N 53°24' W 129°18'0 0.0 350 / 211026.1 -3.0-11.9
2016-Dec-08 12:00N 53°24' W 129°18'0 0.0 360 / 181027.0 -2.9-11.8
2016-Dec-08 11:00N 53°24' W 129°18'0 0.0 360 / 191027.3 -3.1-11.7
2016-Dec-08 10:00N 53°24' W 129°18'0 0.0 350 / 211027.7 -3.2-12.1
2016-Dec-08 09:00N 53°24' W 129°18'0 0.0 360 / 181028.5 -3.3-11.5
2016-Dec-08 08:00N 53°24' W 129°18'0 0.0 360 / 191028.9 -3.4-11.4
2016-Dec-08 07:00N 53°24' W 129°18'0 0.0 350 / 191029.5 -3.6-11.5
2016-Dec-08 06:00N 53°24' W 129°18'0 0.0 350 / 171030.3 -3.8-11.2
2016-Dec-08 05:00N 53°24' W 129°18'0 0.0 360 / 181030.7 -3.8-11.2
2016-Dec-08 04:00N 53°24' W 129°18'0 0.0 360 / 181031.2 -3.9-11.3
2016-Dec-08 03:00N 53°24' W 129°18'0 0.0 360 / 171031.5 -3.8-11.0 6.9
2016-Dec-08 02:00N 53°24' W 129°18'0 0.0 350 / 151032.1 -3.8-11.2 6.9
2016-Dec-08 01:00N 53°24' W 129°18'7 7.0 360 / 181032.4 -3.6-11.2 6.9
2016-Dec-08 00:00N 53°18' W 129°12'6 6.0 350 / 81032.8 -1.9-9.9 7.1
2016-Dec-07 23:00N 53°24' W 129°12'6 6.0 360 / 161033.4 -2.9-11.8 6.9
2016-Dec-07 22:00N 53°18' W 129°12'1312.5 040 / 81033.0 -2.1-10.6 7.0
2016-Dec-07 21:00N 53°06' W 129°06'9 9.4 020 / 101031.9 -1.7-9.7 7.1
2016-Dec-07 20:00N 53°00' W 129°18'1312.5 040 / 171031.9 -1.5-8.6 8.0
2016-Dec-07 19:00N 52°48' W 129°12'1212.4 070 / 91032.2 -1.9-9.4 8.4
2016-Dec-07 18:00N 52°42' W 128°54'1312.5 010 / 21032.0 -3.1-8.1 7.8
2016-Dec-07 17:00N 52°30' W 128°48'0 0.0 060 / 111031.7 -2.8-8.2
2016-Dec-07 16:00N 52°30' W 128°48'0 0.0 070 / 141031.3 -3.1-8.9
2016-Dec-07 15:00N 52°30' W 128°48'0 0.0 080 / 131031.3 -3.3-8.8
2016-Dec-07 14:00N 52°30' W 128°48'0 0.0 080 / 101031.5 -3.3-8.4
2016-Dec-07 13:00N 52°30' W 128°48'0 0.0 060 / 71031.6 -3.1-8.3
2016-Dec-07 12:00N 52°30' W 128°48'0 0.0 070 / 81031.7 -3.1-8.6
2016-Dec-07 11:00N 52°30' W 128°48'0 0.0 080 / 91031.4 -3.0-8.2
2016-Dec-07 10:00N 52°30' W 128°48'0 0.0 080 / 111031.1 -3.1-8.2
2016-Dec-07 09:00N 52°30' W 128°48'0 0.0 080 / 101031.2 -2.8-8.0
2016-Dec-07 08:00N 52°30' W 128°48'0 0.0 050 / 91031.0 -2.9-8.8
2016-Dec-07 07:00N 52°30' W 128°48'0 0.0 050 / 81030.5 -2.7-8.3
2016-Dec-07 06:00N 52°30' W 128°48'0 0.0 070 / 91029.9 -2.6-8.3
2016-Dec-07 05:00N 52°30' W 128°48'0 0.0 070 / 101029.6 -2.4-8.1
2016-Dec-07 04:00N 52°30' W 128°48'0 0.0 060 / 121029.3 -2.3-8.8
2016-Dec-07 03:00N 52°30' W 128°48'0 0.0 070 / 101029.0 -2.1-8.9
2016-Dec-07 02:00N 52°30' W 128°48'0 0.0 060 / 91028.7 -1.8-8.9
2016-Dec-07 01:00N 52°30' W 128°48'0 0.0 060 / 91028.5 -1.5-9.0
2016-Dec-07 00:00N 52°30' W 128°48'0 0.0 060 / 131028.3 -1.2-9.5
2016-Dec-06 23:00N 52°30' W 128°48'0 0.0 050 / 111027.9 -0.9-9.8
2016-Dec-06 22:00N 52°30' W 128°48'0 0.0 050 / 131027.7 -1.0-9.7
2016-Dec-06 21:00N 52°30' W 128°48'0 0.0 050 / 121027.8 -1.0-10.1
2016-Dec-06 20:00N 52°30' W 128°48'0 0.0 060 / 121027.8 -1.2-10.5
2016-Dec-06 19:00N 52°30' W 128°48'0 0.0 050 / 131027.8 -1.3-10.1
2016-Dec-06 18:00N 52°30' W 128°48'0 0.0 060 / 131027.0 -1.4-9.1
2016-Dec-06 17:00N 52°30' W 128°48'0 0.0 030 / 101026.9 -1.6-7.5
2016-Dec-06 16:00N 52°30' W 128°48'0 0.0 030 / 81026.6 -1.5-7.8
2016-Dec-06 15:00N 52°30' W 128°48'0 0.0 040 / 81026.2 -1.3-7.7
2016-Dec-06 14:00N 52°30' W 128°48'0 0.0 040 / 101025.8 -0.8-7.2
2016-Dec-06 13:00N 52°30' W 128°48'0 0.0 070 / 101025.8 -0.7-6.3
2016-Dec-06 12:00N 52°30' W 128°48'0 0.0 050 / 71025.9 -0.2-6.3
2016-Dec-06 11:00N 52°30' W 128°48'0 0.0 040 / 81025.8 0.1-6.0
2016-Dec-06 10:00N 52°30' W 128°48'0 0.0 040 / 101025.1 0.5-5.9
2016-Dec-06 09:00N 52°30' W 128°48'0 0.0 030 / 81025.0 0.6-6.2
2016-Dec-06 08:00N 52°30' W 128°48'0 0.0 040 / 91024.5 1.0-5.0
2016-Dec-06 07:00N 52°30' W 128°48'0 0.0 030 / 61024.1 1.2-4.6
2016-Dec-06 06:00N 52°30' W 128°48'0 0.0 050 / 121023.4 1.4-4.7
2016-Dec-06 05:00N 52°30' W 128°48'0 0.0 050 / 91022.8 1.7-4.2
2016-Dec-06 04:00N 52°30' W 128°48'0 0.0 060 / 121022.2 2.1-3.1
2016-Dec-06 03:00N 52°30' W 128°48'0 0.0 060 / 141021.5 2.6-2.7
2016-Dec-06 02:00N 52°30' W 128°48'0 0.0 050 / 71020.8 2.5-1.9
2016-Dec-06 01:00N 52°30' W 128°48'0 0.0 030 / 81020.1 3.0-2.0
2016-Dec-06 00:00N 52°30' W 128°48'0 0.0 030 / 71019.6 3.7-1.1
2016-Dec-05 23:00N 52°30' W 128°48'0 0.0 040 / 41019.2 4.0-0.0
2016-Dec-05 22:00N 52°30' W 128°48'0 0.0 010 / 71019.1 4.0-0.1
2016-Dec-05 20:00N 52°30' W 128°48'0 0.0 060 / 61019.0 2.6 0.7
2016-Dec-05 19:00N 52°30' W 128°48'0 0.0 090 / 81018.7 3.0 1.2
2016-Dec-05 18:00N 52°30' W 128°48'0 0.0 060 / 81018.2 2.2 1.3
2016-Dec-05 17:00N 52°30' W 128°48'0 0.0 040 / 51018.0 1.6 1.3
2016-Dec-05 16:00N 52°30' W 128°48'0 0.0 050 / 51017.6 1.4 1.2
2016-Dec-05 15:00N 52°30' W 128°48'0 0.0 020 / 41017.1 1.5 1.2
2016-Dec-05 14:00N 52°30' W 128°48'0 0.0 120 / 61016.6 1.6 1.3
2016-Dec-05 13:00N 52°30' W 128°48'0 0.0 140 / 121016.1 1.1 0.9
2016-Dec-05 12:00N 52°30' W 128°48'0 0.0 130 / 171016.2 1.1 0.9
2016-Dec-05 11:00N 52°30' W 128°48'0 0.0 140 / 101016.7 0.9 0.7
2016-Dec-05 10:00N 52°30' W 128°48'0 0.0 140 / 61016.4 1.7 1.4
2016-Dec-05 09:00N 52°30' W 128°48'0 0.0 120 / 71016.3 1.9 1.3
2016-Dec-05 08:00N 52°30' W 128°48'0 0.0 050 / 51016.2 1.3 1.1
2016-Dec-05 07:00N 52°30' W 128°48'0 0.0 090 / 81016.3 1.0 0.8
2016-Dec-05 06:00N 52°30' W 128°48'0 0.0 190 / 51016.7 0.5 0.2
2016-Dec-05 05:00N 52°30' W 128°48'0 0.0 160 / 61015.6 2.6 1.6
2016-Dec-05 04:00N 52°30' W 128°48'0 0.0 140 / 91014.6 1.9 1.1
2016-Dec-05 03:00N 52°30' W 128°48'0 0.0 150 / 111014.9 2.3 1.7
2016-Dec-05 02:00N 52°30' W 128°48'0 0.0 130 / 61014.8 2.0 1.0
2016-Dec-05 01:00N 52°30' W 128°48'0 0.0 120 / 81014.6 2.0 1.4
2016-Dec-05 00:00N 52°30' W 128°48'0 0.0 120 / 91014.5 1.6 1.3
2016-Dec-04 23:00N 52°30' W 128°48'0 0.0 130 / 61014.8 0.9 0.7
2016-Dec-04 22:00N 52°30' W 128°48'0 0.0 100 / 31015.2 0.7 0.4
2016-Dec-04 21:00N 52°30' W 128°48'0 0.0 180 / 81015.3 1.6 1.0
2016-Dec-04 20:00N 52°30' W 128°48'0 0.0 160 / 101015.4 2.7 2.2
2016-Dec-04 19:00N 52°30' W 128°48'0 0.0 140 / 131015.8 1.9 1.7
2016-Dec-04 18:00N 52°30' W 128°48'0 0.0 140 / 121016.2 1.7 1.2
2016-Dec-04 17:00N 52°30' W 128°48'0 0.0 130 / 111016.7 1.9 0.9
2016-Dec-04 16:00N 52°30' W 128°48'0 0.0 160 / 111016.5 1.6 1.3
2016-Dec-04 15:00N 52°30' W 128°48'0 0.0 130 / 111017.4 0.8 0.4
2016-Dec-04 14:00N 52°30' W 128°48'0 0.0 150 / 101017.1 1.9 1.0
2016-Dec-04 13:00N 52°30' W 128°48'0 0.0 180 / 61017.5 1.9 0.8
2016-Dec-04 12:00N 52°30' W 128°48'0 0.0 120 / 71018.0 2.0 0.9
2016-Dec-04 11:00N 52°30' W 128°48'0 0.0 140 / 31018.4 1.3 0.8
2016-Dec-04 10:00N 52°30' W 128°48'0 0.0 120 / 41018.2 1.9 1.2
2016-Dec-04 09:00N 52°30' W 128°48'0 0.0 210 / 41018.5 1.4 0.8
2016-Dec-04 08:00N 52°30' W 128°48'0 0.0 270 / 21018.0 1.6 0.7
2016-Dec-04 07:00N 52°30' W 128°48'0 0.0 1017.5 1.7 0.6
2016-Dec-04 06:00N 52°30' W 128°48'0 0.0 080 / 41016.7 2.6 1.1
2016-Dec-04 05:00N 52°30' W 128°48'0 0.0 150 / 41016.3 2.5 1.2
2016-Dec-04 04:00N 52°30' W 128°48'0 0.0 030 / 51016.1 2.8 0.9
2016-Dec-04 03:00N 52°30' W 128°48'0 0.0 130 / 51016.0 3.0 1.5
2016-Dec-04 02:00N 52°30' W 128°48'0 0.0 200 / 31016.1 3.1 1.4
2016-Dec-04 01:00N 52°30' W 128°48'0 0.0 310 / 31016.5 3.7 1.0
2016-Dec-04 00:00N 52°30' W 128°48'0 0.0 330 / 81016.2 4.8 2.1
2016-Dec-03 23:00N 52°30' W 128°48'0 0.0 220 / 91016.4 5.5 0.6
2016-Dec-03 22:00N 52°30' W 128°48'0 0.0 160 / 51016.8 4.4 2.2
2016-Dec-03 21:00N 52°30' W 128°48'0 0.0 1017.5 3.9 1.3 9.4
2016-Dec-03 20:00N 52°30' W 128°48'0 0.0 320 / 121017.4 4.2 1.1 9.3
2016-Dec-03 19:00N 52°30' W 128°48'7 7.0 260 / 101017.5 6.4 1.6 9.2
2016-Dec-03 18:00N 52°24' W 128°54'7 7.0 230 / 111017.1 6.6 0.910.3
2016-Dec-03 17:00N 52°18' W 128°48'9 9.5 210 / 161016.8 6.5 1.910.4
2016-Dec-03 16:00N 52°12' W 128°36'9 9.5 250 / 181016.8 6.9 0.8 9.2
2016-Dec-03 15:00N 52°18' W 128°24'7 7.0 240 / 181016.6 6.8 2.2 9.1
2016-Dec-03 14:00N 52°12' W 128°18'7 7.0 180 / 131016.8 5.4 2.9 9.0
2016-Dec-03 13:00N 52°18' W 128°12'0 0.0 230 / 151016.6 6.5 2.2 8.7
2016-Dec-03 12:00N 52°18' W 128°12'6 6.0 180 / 81016.1 5.9 2.8 8.5
2016-Dec-03 11:00N 52°24' W 128°12'4 3.7 230 / 181015.2 6.3 1.8 8.4
2016-Dec-03 10:00N 52°24' W 128°06'4 3.7 200 / 151014.5 7.8 3.5 8.2
2016-Dec-03 09:00N 52°24' W 128°12'6 6.0 220 / 61015.6 7.7 3.7 8.6
2016-Dec-03 08:00N 52°18' W 128°12'0 0.0 250 / 81014.7 7.6 3.7 8.7
2016-Dec-03 07:00N 52°18' W 128°12'7 7.0 200 / 81014.9 7.4 3.7 8.8
2016-Dec-03 06:00N 52°12' W 128°06'9 9.5 220 / 61015.1 7.0 4.1 8.2
2016-Dec-03 05:00N 52°06' W 127°54'1212.0 190 / 61014.9 7.8 4.8 8.1
2016-Dec-03 04:00N 51°54' W 127°54'1212.0 200 / 121015.1 8.8 5.0 9.1
2016-Dec-03 03:00N 51°42' W 127°54'1312.6 230 / 131014.6 9.3 4.7 9.3
2016-Dec-03 02:00N 51°30' W 127°48'1312.6 220 / 111014.7 9.1 5.3 9.8
2016-Dec-03 01:00N 51°18' W 127°54'6 8.4 230 / 141014.5 9.3 5.110.2
2016-Dec-03 00:14N 51°12' W 127°52'1 5.2
2016-Dec-03 00:00N 51°12' W 127°54'818.8 200 / 121014.3 9.6 5.4 9.8
2016-Dec-02 23:33N 51°05' W 127°49'1118.7
2016-Dec-02 23:00N 50°54' W 127°48'512.6 220 / 161014.7 8.3 5.710.3
2016-Dec-02 22:34N 50°55' W 127°39'610.7
2016-Dec-02 22:00N 50°54' W 127°30'715.3 220 / 141015.0 8.6 5.210.0
2016-Dec-02 21:33N 50°48' W 127°26'611.0
2016-Dec-02 21:00N 50°42' W 127°30'1 3.0 180 / 61015.1 7.9 5.7
2016-Dec-02 20:31N 50°43' W 127°29'1 2.7
2016-Dec-02 20:00N 50°42' W 127°30'1 1.8 170 / 41014.7 7.9 7.1
2016-Dec-02 19:13N 50°43' W 127°29'1 6.3
2016-Dec-02 19:00N 50°42' W 127°30'1 3.0 140 / 11014.5 8.5 7.4
2016-Dec-02 18:31N 50°43' W 127°29'1 2.7
2016-Dec-02 18:00N 50°42' W 127°30'0 0.0 180 / 31014.1 6.5 6.2
2016-Dec-02 17:00N 50°42' W 127°30'0 0.0 220 / 31013.5 6.7 6.2
2016-Dec-02 16:00N 50°42' W 127°30'0 0.0 250 / 21012.7 6.6 6.1
2016-Dec-02 15:00N 50°42' W 127°30'0 0.0 200 / 11012.5 6.6 5.9
2016-Dec-02 14:00N 50°42' W 127°30'1 3.0 160 / 21012.1 6.5 5.5
2016-Dec-02 13:31N 50°43' W 127°29'1 2.7
2016-Dec-02 13:00N 50°42' W 127°30'1 3.0 140 / 21012.6 7.1 5.4
2016-Dec-02 12:31N 50°43' W 127°29'1 2.7
2016-Dec-02 12:00N 50°42' W 127°30'1 3.0 150 / 41014.2 6.2 5.1
2016-Dec-02 11:31N 50°43' W 127°29'1 2.7
2016-Dec-02 11:00N 50°42' W 127°30'1 3.0 130 / 31014.3 7.0 5.4
2016-Dec-02 10:31N 50°43' W 127°29'1 2.7
2016-Dec-02 10:00N 50°42' W 127°30'1 3.0 110 / 31014.7 7.3 5.6
2016-Dec-02 09:31N 50°43' W 127°29'1 2.7
2016-Dec-02 09:00N 50°42' W 127°30'1 3.0 100 / 51016.4 7.2 5.3
2016-Dec-02 08:31N 50°43' W 127°29'1 2.7
2016-Dec-02 08:00N 50°42' W 127°30'1 3.0 110 / 31017.5 7.1 5.4
2016-Dec-02 07:31N 50°43' W 127°29'1 2.7
2016-Dec-02 07:00N 50°42' W 127°30'1 3.0 130 / 31018.7 7.4 4.8
2016-Dec-02 06:31N 50°43' W 127°29'1 2.7
2016-Dec-02 06:00N 50°42' W 127°30'1 2.5 110 / 41019.6 7.7 4.4
2016-Dec-02 05:25N 50°43' W 127°29'1 3.4
2016-Dec-02 05:00N 50°42' W 127°30'1 3.0 130 / 21020.3 7.3 4.6
2016-Dec-02 04:31N 50°43' W 127°29'0 0.0
2016-Dec-02 03:31N 50°43' W 127°29'1 2.7
2016-Dec-02 03:00N 50°42' W 127°30'1 2.5 140 / 21021.0 6.7 4.6
2016-Dec-02 02:25N 50°43' W 127°29'1 3.4
2016-Dec-02 02:00N 50°42' W 127°30'1 1.8 130 / 21021.2 6.3 4.2
2016-Dec-02 01:13N 50°43' W 127°29'1 6.3
2016-Dec-02 01:00N 50°42' W 127°30'1 3.0 130 / 21021.3 6.5 4.5
2016-Dec-02 00:31N 50°43' W 127°29'1 2.7
2016-Dec-02 00:00N 50°42' W 127°30'1 3.0 150 / 11020.8 6.6 4.7
2016-Dec-01 23:31N 50°43' W 127°29'1 2.7
2016-Dec-01 23:00N 50°42' W 127°30'1 3.0 120 / 21020.2 7.4 5.1
2016-Dec-01 22:31N 50°43' W 127°29'1 2.7
2016-Dec-01 22:00N 50°42' W 127°30'1 3.0 120 / 11020.0 6.9 5.0
2016-Dec-01 21:31N 50°43' W 127°29'1 2.7
2016-Dec-01 21:00N 50°42' W 127°30'1 3.0 140 / 21020.2 6.2 4.7
2016-Dec-01 20:31N 50°43' W 127°29'1 2.7
2016-Dec-01 20:00N 50°42' W 127°30'1 3.0 120 / 21019.7 7.2 4.9
2016-Dec-01 19:31N 50°43' W 127°29'1 2.7
2016-Dec-01 19:00N 50°42' W 127°30'1 2.5 120 / 21020.0 7.0 5.2
2016-Dec-01 18:25N 50°43' W 127°29'1 3.4
2016-Dec-01 18:00N 50°42' W 127°30'0 0.0 150 / 31020.3 4.8 4.1
2016-Dec-01 17:00N 50°42' W 127°30'0 0.0 190 / 41020.1 4.5 3.6
2016-Dec-01 16:00N 50°42' W 127°30'0 0.0 160 / 11020.1 4.9 3.7
2016-Dec-01 15:00N 50°42' W 127°30'0 0.0 200 / 31020.4 4.5 3.6
2016-Dec-01 14:00N 50°42' W 127°30'1 3.0 170 / 21020.8 4.6 3.5
2016-Dec-01 13:31N 50°43' W 127°29'1 2.7
2016-Dec-01 13:00N 50°42' W 127°30'1 2.5 180 / 31020.8 4.7 3.6
2016-Dec-01 12:25N 50°43' W 127°29'1 3.4
2016-Dec-01 12:00N 50°42' W 127°30'0 0.0 180 / 21020.9 5.4 3.8
2016-Dec-01 11:00N 50°42' W 127°30'0 0.0 170 / 31021.0 4.4 3.5
2016-Dec-01 10:00N 50°42' W 127°30'0 0.0 160 / 31021.1 4.3 3.4
2016-Dec-01 09:00N 50°42' W 127°30'0 0.0 170 / 11021.3 3.6 2.7
2016-Dec-01 08:00N 50°42' W 127°30'0 0.0 230 / 11020.9 3.6 2.7
2016-Dec-01 07:00N 50°42' W 127°30'0 0.0 170 / 21020.6 3.4 2.6
2016-Dec-01 06:00N 50°42' W 127°30'0 0.0 180 / 31020.6 3.7 2.6
2016-Dec-01 05:00N 50°42' W 127°30'0 0.0 150 / 11020.3 4.4 3.3
2016-Dec-01 04:00N 50°42' W 127°30'0 0.0 250 / 11020.1 4.8 3.6
2016-Dec-01 03:00N 50°42' W 127°30'1 1.0 170 / 21019.7 4.9 3.9
2016-Dec-01 01:31N 50°43' W 127°29'1 2.7
2016-Dec-01 01:00N 50°42' W 127°30'1 2.1 160 / 21018.6 5.6 4.5
2016-Dec-01 00:19N 50°43' W 127°29'1 4.4
2016-Dec-01 00:00N 50°42' W 127°30'0 0.0 320 / 31017.9 6.4 4.5
2016-Nov-30 23:00N 50°42' W 127°30'1 2.5 230 / 41017.2 6.6 4.2
2016-Nov-30 22:25N 50°43' W 127°29'1 3.4
2016-Nov-30 22:00N 50°42' W 127°30'1 3.0 250 / 51016.5 7.1 4.0
2016-Nov-30 21:31N 50°43' W 127°29'1 2.7
2016-Nov-30 21:00N 50°42' W 127°30'   250 / 71016.1 8.8 4.812.0

Dump ship's entire track history